Nearby METAR Reports

 

YSRI - Richmond (aus-Af, Australia
Distance from station: SW 65km
Updated: 17/02/2020 15:00
Overcast
Overcast
 Wind from N
Wind: N 6 km/h
Temperature: 24°C
Dew Point: 20°C
Humidity: 78%
Barometer: 1012 hPa
Clouds: Overcast
Visibility: 10 km
Cloud details: Mostly cloudy 518 m
Overcast 853 m
2020/02/17 04:00 YSRI 170400Z AUTO 35003KT 9999 // BKN017 OVC028 24/20 Q1012
YWLM - Williamtown Arp, Australia
Distance from station: NE 69km
Updated: 17/02/2020 15:00
Nearby showers, Mostly cloudy
Nearby showers, Mostly cloudy
 Wind from WNW
Wind: WNW 20 km/h
Temperature: 22°C
Dew Point: 21°C
Humidity: 94%
Barometer: 1012 hPa
Summary: Nearby Showers
Clouds: Mostly cloudy
Visibility: 10 km
Cloud details: Partly cloudy 274 m
Partly cloudy 1036 m
Mostly cloudy 3048 m
2020/02/17 04:00 YWLM 170400Z 30011KT 9999 VCSH SCT009 SCT034 BKN100 22/21 Q1012
 
YSSY - Sydney Intl Airp, Australia
Distance from station: SSW 77km
Updated: 17/02/2020 15:00
Mostly cloudy
Mostly cloudy
 Wind from SSE
Wind: SSE 11 km/h
Temperature: 24°C
Dew Point: 20°C
Humidity: 78%
Barometer: 1012 hPa
Clouds: Mostly cloudy
Visibility: 10 km
Cloud details: Few Clouds 610 m
Mostly cloudy 701 m
Mostly cloudy 1067 m
2020/02/17 04:00 YSSY 170400Z 16006KT 9999 FEW020 BKN023 BKN035 24/20 Q1012